Time;durP1;ratioP1;P1;durP2;ratioP2;P2;SDS_P1;SDS_P2;PMS_P1;PMS_P2;Temp;Humidity;BMP_temperature;BMP_pressure;BME280_temperature;BME280_humidity;BME280_pressure;Samples;Min_cycle;Max_cycle;Signal;HPM_P1;HPM_P2
2024/02/16 10:12:25;;;;;;;;;52.75;43.75;;;;;;;;5124520;27;14278;-71
2024/02/16 10:20:06;;;;;;;;;55.50;44.75;;;;;;;;5098698;27;13966;-72
2024/02/16 10:27:47;;;;;;;;;54.00;44.00;;;;;;;;5107800;27;13278;-74
2024/02/16 10:38:10;;;;;;;;;50.75;41.50;;;;;;;;5104586;27;13500;-75
2024/02/16 10:40:41;;;;;;;;;49.75;42.00;;;;;;;;5106457;28;11510;-73
2024/02/16 10:43:07;;;;;;;;;51.00;43.25;;;;;;;;5108166;28;11607;-73
2024/02/16 10:45:37;;;;;;;;;50.50;43.25;;;;;;;;5106572;28;11533;-75
2024/02/16 10:48:02;;;;;;;;;58.25;48.25;;;;;;;;5107495;28;11597;-75
2024/02/16 10:50:28;;;;;;;;;55.00;46.00;;;;;;;;5106470;28;11511;-74
2024/02/16 10:52:55;;;;;;;;;59.75;45.25;;;;;;;;5107743;28;8780;-72
2024/02/16 10:55:20;;;;;;;;;57.50;46.75;;;;;;;;5107860;28;8872;-73
2024/02/16 10:57:45;;;;;;;;;55.25;46.00;;;;;;;;5107328;28;11514;-75
2024/02/16 11:00:11;;;;;;;;;55.75;45.00;;;;;;;;5079204;27;10025;-75
2024/02/16 11:03:04;;;;;;;;;52.00;42.75;;;;;;;;5066915;28;8791;-76
2024/02/16 11:05:36;;;;;;;;;43.00;37.00;;;;;;;;5066905;28;8810;-76
2024/02/16 11:08:02;;;;;;;;;47.50;38.75;;;;;;;;5066607;28;10538;-78
2024/02/16 11:10:27;;;;;;;;;47.75;39.50;;;;;;;;5063738;28;10159;-79
2024/02/16 11:12:55;;;;;;;;;46.75;39.00;;;;;;;;5066795;28;8799;-78
2024/02/16 11:15:27;;;;;;;;;40.00;35.00;;;;;;;;5066843;28;8807;-79
2024/02/16 11:17:57;;;;;;;;;44.75;35.50;;;;;;;;5066500;28;9579;-80
2024/02/16 11:20:23;;;;;;;;;40.50;35.00;;;;;;;;5038061;28;9864;-76
2024/02/16 11:22:50;;;;;;;;;39.50;35.00;;;;;;;;5046767;28;10426;-79
2024/02/16 11:25:16;;;;;;;;;45.75;35.50;;;;;;;;5023819;28;11029;-78
2024/02/16 11:27:41;;;;;;;;;37.75;34.75;;;;;;;;5020460;28;9955;-77
2024/02/16 11:30:10;;;;;;;;;40.25;34.25;;;;;;;;5027852;28;8820;-77
2024/02/16 11:32:35;;;;;;;;;35.25;32.00;;;;;;;;5025275;28;9561;-79
2024/02/16 11:35:07;;;;;;;;;37.50;33.75;;;;;;;;5014452;28;10011;-81
2024/02/16 11:37:33;;;;;;;;;35.00;30.50;;;;;;;;5016872;28;8953;-78
2024/02/16 11:39:58;;;;;;;;;32.00;29.50;;;;;;;;5003675;28;10214;-76
2024/02/16 11:42:27;;;;;;;;;35.50;31.50;;;;;;;;5026517;28;8876;-76
2024/02/16 11:44:53;;;;;;;;;34.00;33.00;;;;;;;;5026540;28;9513;-80
2024/02/16 11:47:19;;;;;;;;;32.75;28.50;;;;;;;;5021975;28;10568;-81
2024/02/16 11:49:44;;;;;;;;;33.75;31.00;;;;;;;;4994099;28;10254;-82
2024/02/16 11:52:10;;;;;;;;;38.25;32.50;;;;;;;;4999957;28;10350;-80
2024/02/16 11:54:36;;;;;;;;;32.75;31.00;;;;;;;;4993805;28;8895;-80
2024/02/16 11:57:02;;;;;;;;;41.00;34.50;;;;;;;;4993745;28;8959;-80
2024/02/16 11:59:28;;;;;;;;;31.25;31.00;;;;;;;;5005439;28;10936;-80
2024/02/16 12:01:55;;;;;;;;;31.25;28.25;;;;;;;;5012686;28;9536;-79
2024/02/16 12:04:27;;;;;;;;;25.75;25.75;;;;;;;;4995528;28;10703;-79
2024/02/16 12:06:55;;;;;;;;;36.75;34.00;;;;;;;;5012226;28;10957;-77
2024/02/16 12:09:21;;;;;;;;;28.75;27.75;;;;;;;;5009707;28;11828;-80
2024/02/16 12:11:47;;;;;;;;;30.50;23.75;;;;;;;;5009339;28;10825;-73
2024/02/16 12:14:13;;;;;;;;;20.00;20.00;;;;;;;;5012906;28;8889;-75
2024/02/16 12:16:38;;;;;;;;;31.00;26.25;;;;;;;;4995003;28;11384;-78
2024/02/16 12:19:04;;;;;;;;;29.75;26.25;;;;;;;;5002370;28;8932;-74
2024/02/16 12:21:36;;;;;;;;;45.00;39.75;;;;;;;;5010384;28;8826;-74
2024/02/16 12:24:01;;;;;;;;;28.25;24.50;;;;;;;;4997172;28;12847;-75
2024/02/16 12:26:26;;;;;;;;;57.50;47.25;;;;;;;;5000174;28;10892;-73
2024/02/16 12:28:51;;;;;;;;;30.25;27.75;;;;;;;;5003261;28;9548;-73
2024/02/16 12:31:20;;;;;;;;;27.75;24.25;;;;;;;;5030435;28;8828;-74
2024/02/16 12:33:45;;;;;;;;;35.50;31.50;;;;;;;;5031904;28;8788;-73
2024/02/16 12:36:10;;;;;;;;;35.50;32.25;;;;;;;;5014665;28;11194;-74
2024/02/16 12:38:36;;;;;;;;;36.25;33.25;;;;;;;;5027770;28;8824;-73
2024/02/16 12:41:01;;;;;;;;;35.50;34.50;;;;;;;;5011640;28;9530;-73
2024/02/16 12:43:33;;;;;;;;;41.00;33.75;;;;;;;;5011978;28;8796;-76
2024/02/16 12:46:01;;;;;;;;;35.25;33.00;;;;;;;;4999652;28;8802;-74
2024/02/16 12:48:27;;;;;;;;;30.00;28.25;;;;;;;;4997746;28;11135;-74
2024/02/16 12:50:52;;;;;;;;;30.00;28.50;;;;;;;;4998480;28;11369;-74
2024/02/16 12:53:17;;;;;;;;;32.00;29.75;;;;;;;;4992379;28;8803;-74
2024/02/16 12:55:43;;;;;;;;;35.00;27.25;;;;;;;;5008018;28;8792;-74
2024/02/16 12:58:12;;;;;;;;;29.00;24.50;;;;;;;;4998946;28;8616;-77
2024/02/16 13:00:38;;;;;;;;;37.75;29.00;;;;;;;;5022071;28;8847;-77
2024/02/16 13:03:04;;;;;;;;;33.75;31.50;;;;;;;;5010969;28;11382;-77
2024/02/16 13:05:31;;;;;;;;;36.50;32.50;;;;;;;;5007454;28;8906;-77
2024/02/16 13:07:57;;;;;;;;;36.50;33.25;;;;;;;;5007467;28;11129;-78
2024/02/16 13:10:22;;;;;;;;;35.00;30.00;;;;;;;;5000641;28;11475;-78
2024/02/16 13:12:47;;;;;;;;;35.75;31.00;;;;;;;;5009149;28;8824;-77
2024/02/16 13:15:13;;;;;;;;;36.25;36.25;;;;;;;;5002435;28;8806;-78
2024/02/16 13:17:38;;;;;;;;;32.25;28.75;;;;;;;;5009567;28;8949;-77
2024/02/16 13:20:06;;;;;;;;;36.75;31.50;;;;;;;;5003493;28;8900;-68
2024/02/16 13:26:31;;;;;;;;;32.50;29.50;;;;;;;;5104790;27;13486;-76
2024/02/16 13:28:57;;;;;;;;;35.50;30.25;;;;;;;;5107004;28;11448;-76
2024/02/16 13:31:23;;;;;;;;;28.75;28.75;;;;;;;;5107592;28;8880;-75
2024/02/16 13:33:49;;;;;;;;;26.00;25.00;;;;;;;;5107584;28;11138;-76
2024/02/16 13:36:14;;;;;;;;;25.00;21.00;;;;;;;;5107692;28;10924;-80
2024/02/16 13:38:39;;;;;;;;;22.00;19.75;;;;;;;;5106436;28;8804;-76
2024/02/16 13:41:05;;;;;;;;;17.50;16.75;;;;;;;;5069318;28;9770;-78
2024/02/16 13:43:30;;;;;;;;;25.75;21.50;;;;;;;;5067272;28;8911;-77
2024/02/16 13:45:57;;;;;;;;;19.50;19.25;;;;;;;;5070858;28;10034;-75
2024/02/16 13:48:23;;;;;;;;;24.50;23.00;;;;;;;;5062145;28;8805;-75
2024/02/16 13:50:48;;;;;;;;;22.00;19.50;;;;;;;;5063988;28;10975;-76
2024/02/16 13:53:14;;;;;;;;;18.25;16.00;;;;;;;;5066327;28;9548;-76
2024/02/16 13:56:00;;;;;;;;;23.00;18.25;;;;;;;;5063428;28;8849;-77
2024/02/16 13:58:26;;;;;;;;;24.25;23.00;;;;;;;;5064631;28;11046;-77
2024/02/16 14:00:51;;;;;;;;;18.00;17.75;;;;;;;;5064958;28;10615;-77
2024/02/16 14:03:17;;;;;;;;;19.00;18.25;;;;;;;;5062134;28;8845;-76
2024/02/16 14:05:44;;;;;;;;;21.25;17.00;;;;;;;;5063816;28;9749;-74
2024/02/16 14:08:11;;;;;;;;;14.75;13.75;;;;;;;;5064576;28;9007;-76
2024/02/16 14:10:36;;;;;;;;;21.75;17.75;;;;;;;;5063238;28;10416;-77
2024/02/16 14:13:01;;;;;;;;;21.00;17.00;;;;;;;;5064221;28;10294;-75
2024/02/16 14:15:26;;;;;;;;;16.00;16.00;;;;;;;;5064687;28;8819;-75
2024/02/16 14:17:55;;;;;;;;;16.25;14.50;;;;;;;;5065667;28;8807;-78
2024/02/16 14:20:23;;;;;;;;;18.00;18.00;;;;;;;;5066007;28;8834;-75
2024/02/16 14:22:48;;;;;;;;;18.00;17.00;;;;;;;;5059973;28;10418;-76
2024/02/16 14:25:14;;;;;;;;;21.25;19.75;;;;;;;;5074237;28;11305;-80
2024/02/16 14:27:46;;;;;;;;;20.25;18.25;;;;;;;;5067372;28;8843;-75
2024/02/16 14:30:15;;;;;;;;;21.25;16.00;;;;;;;;5085205;28;8906;-77
2024/02/16 14:32:41;;;;;;;;;34.50;30.50;;;;;;;;5086186;28;10735;-77
2024/02/16 14:35:06;;;;;;;;;27.25;24.00;;;;;;;;5084623;28;11027;-77
2024/02/16 14:37:32;;;;;;;;;25.75;22.50;;;;;;;;5073777;28;10722;-77
2024/02/16 14:39:59;;;;;;;;;18.00;18.00;;;;;;;;5072417;28;8890;-75
2024/02/16 14:42:24;;;;;;;;;22.00;21.25;;;;;;;;5072652;28;10449;-79
2024/02/16 14:44:50;;;;;;;;;19.50;19.50;;;;;;;;5071545;28;10476;-79
2024/02/16 14:47:15;;;;;;;;;23.00;18.50;;;;;;;;5072594;28;8809;-82
2024/02/16 14:49:44;;;;;;;;;26.00;23.00;;;;;;;;5071383;28;8897;-82
2024/02/16 14:52:09;;;;;;;;;18.00;16.00;;;;;;;;5071980;28;8836;-81
2024/02/16 14:54:35;;;;;;;;;18.50;17.00;;;;;;;;5071990;28;10139;-75
2024/02/16 14:57:00;;;;;;;;;18.00;15.50;;;;;;;;5053751;28;8813;-70
2024/02/16 14:59:26;;;;;;;;;15.50;15.50;;;;;;;;5071524;28;8900;-72
2024/02/16 15:01:52;;;;;;;;;23.00;21.75;;;;;;;;5071499;28;8913;-74
2024/02/16 15:04:17;;;;;;;;;17.75;17.25;;;;;;;;5054302;28;11361;-83
2024/02/16 15:06:43;;;;;;;;;16.00;14.75;;;;;;;;5054122;28;9755;-82
2024/02/16 15:09:10;;;;;;;;;19.75;16.75;;;;;;;;5070831;28;8883;-82
2024/02/16 15:11:35;;;;;;;;;17.00;14.00;;;;;;;;5072697;28;8835;-83
2024/02/16 15:14:00;;;;;;;;;21.50;18.00;;;;;;;;5072194;28;10457;-85
2024/02/16 15:16:26;;;;;;;;;19.25;17.00;;;;;;;;5072029;28;8806;-78
2024/02/16 15:18:51;;;;;;;;;19.00;17.00;;;;;;;;5072226;28;8809;-80
2024/02/16 15:21:17;;;;;;;;;18.00;18.00;;;;;;;;5071962;28;8790;-79
2024/02/16 15:23:43;;;;;;;;;23.00;21.00;;;;;;;;5071938;28;8785;-77
2024/02/16 15:26:11;;;;;;;;;23.50;20.50;;;;;;;;5068887;28;10669;-71
2024/02/16 15:29:20;;;;;;;;;20.75;20.00;;;;;;;;5102926;27;13553;-70
2024/02/16 15:31:46;;;;;;;;;26.50;21.25;;;;;;;;5095722;28;10656;-66
2024/02/16 15:34:13;;;;;;;;;24.50;24.50;;;;;;;;5096260;28;8948;-75
2024/02/16 15:36:39;;;;;;;;;36.75;33.75;;;;;;;;5094799;28;8918;-74
2024/02/16 15:39:04;;;;;;;;;48.00;36.75;;;;;;;;5089668;28;11483;-76
2024/02/16 15:41:29;;;;;;;;;54.25;44.00;;;;;;;;5095948;28;8839;-76
2024/02/16 15:43:54;;;;;;;;;36.00;29.25;;;;;;;;5106084;28;8935;-75
2024/02/16 15:46:20;;;;;;;;;30.25;27.50;;;;;;;;5093460;28;8816;-74
2024/02/16 15:48:46;;;;;;;;;25.25;23.00;;;;;;;;5089875;28;8891;-74
2024/02/16 15:51:11;;;;;;;;;23.75;23.25;;;;;;;;5085810;28;8802;-74
2024/02/16 15:53:37;;;;;;;;;23.00;21.75;;;;;;;;5085838;28;11454;-73
2024/02/16 15:56:04;;;;;;;;;17.75;17.50;;;;;;;;5085987;28;8775;-74
2024/02/16 15:58:29;;;;;;;;;30.25;26.50;;;;;;;;5084564;28;8802;-74
2024/02/16 16:00:55;;;;;;;;;31.00;29.50;;;;;;;;5084261;28;11543;-73
2024/02/16 16:03:20;;;;;;;;;38.50;34.00;;;;;;;;5084527;28;8786;-73
2024/02/16 16:05:49;;;;;;;;;36.00;32.00;;;;;;;;5084547;28;8947;-74
2024/02/16 16:08:16;;;;;;;;;38.75;31.75;;;;;;;;5087335;28;8897;-73
2024/02/16 16:10:41;;;;;;;;;38.00;32.50;;;;;;;;5087081;28;11580;-74
2024/02/16 16:13:09;;;;;;;;;36.50;30.25;;;;;;;;5087047;28;11450;-73
2024/02/16 16:15:34;;;;;;;;;32.00;30.25;;;;;;;;5086932;28;8790;-74
2024/02/16 16:18:00;;;;;;;;;36.00;33.25;;;;;;;;5087682;28;11625;-74
2024/02/16 16:20:25;;;;;;;;;43.25;36.25;;;;;;;;5086012;28;8826;-74
2024/02/16 16:22:50;;;;;;;;;47.00;39.50;;;;;;;;5086823;28;8782;-74
2024/02/16 16:25:15;;;;;;;;;33.25;31.75;;;;;;;;5086837;28;8783;-74
2024/02/16 16:27:44;;;;;;;;;38.75;30.75;;;;;;;;5086819;28;9580;-74
2024/02/16 16:30:10;;;;;;;;;37.25;31.75;;;;;;;;5086693;28;8782;-73
2024/02/16 16:32:35;;;;;;;;;31.50;30.50;;;;;;;;5086806;28;11555;-74
2024/02/16 16:35:00;;;;;;;;;40.00;31.50;;;;;;;;5086768;28;8794;-74
2024/02/16 16:37:26;;;;;;;;;35.75;32.50;;;;;;;;5086636;28;8852;-74
2024/02/16 16:39:51;;;;;;;;;34.00;29.75;;;;;;;;5076698;28;8842;-74
2024/02/16 16:42:17;;;;;;;;;35.25;30.50;;;;;;;;5073243;28;8798;-74
2024/02/16 16:44:42;;;;;;;;;37.50;35.50;;;;;;;;5073030;28;8798;-74
2024/02/16 16:47:09;;;;;;;;;33.50;32.50;;;;;;;;5071894;28;8808;-74
2024/02/16 16:49:38;;;;;;;;;40.75;37.00;;;;;;;;5073113;28;8805;-74
2024/02/16 16:52:04;;;;;;;;;;;;;;;;;;5075504;28;11528;-74
2024/02/16 16:54:29;;;;;;;;;38.00;35.50;;;;;;;;5105400;28;8895;-74
2024/02/16 16:56:54;;;;;;;;;36.50;33.75;;;;;;;;5072976;28;8779;-79
2024/02/16 16:59:22;;;;;;;;;38.25;33.00;;;;;;;;5072904;28;8798;-79
2024/02/16 17:01:47;;;;;;;;;35.75;31.25;;;;;;;;5073122;28;9793;-81
2024/02/16 17:04:12;;;;;;;;;36.25;34.00;;;;;;;;5071428;28;11900;-76
2024/02/16 17:06:40;;;;;;;;;;;;;;;;;;5071320;28;8802;-77
2024/02/16 17:09:09;;;;;;;;;;;;;;;;;;5085014;28;7524;-74
2024/02/16 17:11:34;;;;;;;;;;;;;;;;;;5077516;28;7516;-74
2024/02/16 17:14:00;;;;;;;;;;;;;;;;;;5079219;28;7998;-71
2024/02/16 17:16:25;;;;;;;;;;;;;;;;;;5077876;28;7566;-80
2024/02/16 17:18:50;;;;;;;;;;;;;;;;;;5070725;28;7524;-78
2024/02/16 17:21:15;;;;;;;;;;;;;;;;;;5077099;28;7543;-82
2024/02/16 17:23:40;;;;;;;;;;;;;;;;;;5079941;28;8007;-76
2024/02/16 17:26:05;;;;;;;;;;;;;;;;;;5072163;28;7517;-80
2024/02/16 17:28:32;;;;;;;;;;;;;;;;;;5080784;28;7558;-82
2024/02/16 17:30:58;;;;;;;;;;;;;;;;;;5075323;28;7528;-82
2024/02/16 17:33:24;;;;;;;;;;;;;;;;;;5079873;28;7532;-79
2024/02/16 17:35:49;;;;;;;;;;;;;;;;;;5087737;28;7524;-74
2024/02/16 17:38:14;;;;;;;;;;;;;;;;;;5082951;28;7586;-75
2024/02/16 17:40:41;;;;;;;;;;;;;;;;;;5080348;28;7524;-75
2024/02/16 17:43:06;;;;;;;;;;;;;;;;;;5078778;28;7520;-74
2024/02/16 17:45:31;;;;;;;;;;;;;;;;;;5072456;28;7990;-75
2024/02/16 17:47:56;;;;;;;;;;;;;;;;;;5073486;28;7525;-76
2024/02/16 17:50:21;;;;;;;;;;;;;;;;;;5077994;28;7601;-73
2024/02/16 17:52:46;;;;;;;;;;;;;;;;;;5103795;27;7670;-79
2024/02/16 17:55:11;;;;;;;;;;;;;;;;;;5072130;28;7529;-76
2024/02/16 17:57:37;;;;;;;;;;;;;;;;;;5071877;28;7532;-73
2024/02/16 18:00:03;;;;;;;;;;;;;;;;;;5072965;28;7556;-73
2024/02/16 18:02:30;;;;;;;;;;;;;;;;;;5072317;28;7609;-74
2024/02/16 18:04:55;;;;;;;;;;;;;;;;;;5084811;28;8022;-77
2024/02/16 18:07:20;;;;;;;;;;;;;;;;;;5079596;28;7532;-76
2024/02/16 18:09:46;;;;;;;;;;;;;;;;;;5087503;28;7533;-74
2024/02/16 18:12:14;;;;;;;;;;;;;;;;;;5083761;28;7537;-75
2024/02/16 18:14:39;;;;;;;;;;;;;;;;;;5086927;28;7517;-75
2024/02/16 18:17:07;;;;;;;;;;;;;;;;;;5077593;28;7517;-74
2024/02/16 18:19:32;;;;;;;;;;;;;;;;;;5079160;28;7619;-73
2024/02/16 18:21:57;;;;;;;;;;;;;;;;;;5071900;28;7600;-76
2024/02/16 18:24:23;;;;;;;;;;;;;;;;;;5075924;28;7598;-80
2024/02/16 18:26:48;;;;;;;;;;;;;;;;;;5074947;28;7525;-80
2024/02/16 18:29:13;;;;;;;;;;;;;;;;;;4958747;28;12922;-82
2024/02/16 18:31:39;;;;;;;;;;;;;;;;;;4985159;28;10663;-80
2024/02/16 18:34:07;;;;;;;;;;;;;;;;;;5019677;28;7549;-73
2024/02/16 18:36:32;;;;;;;;;;;;;;;;;;5020077;28;7541;-72
2024/02/16 18:38:59;;;;;;;;;;;;;;;;;;5019644;28;7541;-72
2024/02/16 18:41:24;;;;;;;;;;;;;;;;;;5020890;28;7564;-71
2024/02/16 18:43:49;;;;;;;;;;;;;;;;;;5019940;28;7533;-71
2024/02/16 18:46:16;;;;;;;;;;;;;;;;;;5019546;28;7521;-71
2024/02/16 18:48:42;;;;;;;;;;;;;;;;;;5017479;28;7530;-72
2024/02/16 18:51:07;;;;;;;;;;;;;;;;;;5019999;28;7533;-72
2024/02/16 18:53:32;;;;;;;;;;;;;;;;;;5019660;28;7525;-70
2024/02/16 18:55:57;;;;;;;;;;;;;;;;;;5019177;28;7525;-69
2024/02/16 18:58:24;;;;;;;;;;;;;;;;;;5019502;28;7545;-72
2024/02/16 19:00:50;;;;;;;;;;;;;;;;;;5017717;28;7533;-79
2024/02/16 19:03:15;;;;;;;;;;;;;;;;;;5020232;28;7532;-73
2024/02/16 19:05:40;;;;;;;;;;;;;;;;;;5020189;28;7525;-73
2024/02/16 19:08:06;;;;;;;;;;;;;;;;;;5018058;28;7533;-73
2024/02/16 19:10:31;;;;;;;;;;;;;;;;;;5014364;28;7556;-73
2024/02/16 19:12:59;;;;;;;;;;;;;;;;;;5021359;28;7517;-74
2024/02/16 19:15:32;;;;;;;;;;;;;;;;;;5021591;28;7984;-76
2024/02/16 19:17:57;;;;;;;;;;;;;;;;;;5020546;28;7624;-74
2024/02/16 19:20:22;;;;;;;;;;;;;;;;;;5020687;28;7533;-72
2024/02/16 19:22:51;;;;;;;;;;;;;;;;;;5023614;28;7698;-70
2024/02/16 19:25:17;;;;;;;;;;;;;;;;;;5022310;28;7525;-70
2024/02/16 19:27:42;;;;;;;;;;;;;;;;;;5019989;28;7538;-72
2024/02/16 19:30:07;;;;;;;;;;;;;;;;;;5023002;28;7537;-73
2024/02/16 19:32:32;;;;;;;;;;;;;;;;;;5019683;28;7534;-73
2024/02/16 19:34:57;;;;;;;;;;;;;;;;;;5022476;28;7529;-72
2024/02/16 19:37:22;;;;;;;;;;;;;;;;;;5022786;28;7525;-72
2024/02/16 19:39:48;;;;;;;;;;;;;;;;;;5021647;28;7521;-71
2024/02/16 19:42:15;;;;;;;;;;;;;;;;;;5019645;28;7529;-73
2024/02/16 19:44:41;;;;;;;;;;;;;;;;;;5022311;28;7537;-72
2024/02/16 19:47:07;;;;;;;;;;;;;;;;;;5022340;28;7529;-73
2024/02/16 19:49:32;;;;;;;;;;;;;;;;;;5020608;28;7560;-73
2024/02/16 19:51:57;;;;;;;;;;;;;;;;;;5014151;28;7526;-73
2024/02/16 19:54:22;;;;;;;;;;;;;;;;;;5022552;28;7619;-74
2024/02/16 19:56:47;;;;;;;;;;;;;;;;;;5021910;28;7586;-74
2024/02/16 19:59:12;;;;;;;;;;;;;;;;;;5017524;28;7546;-73
2024/02/16 20:01:37;;;;;;;;;;;;;;;;;;5019146;28;7549;-74
2024/02/16 20:04:03;;;;;;;;;;;;;;;;;;5015305;28;7521;-73
2024/02/16 20:06:28;;;;;;;;;;;;;;;;;;5012848;28;7631;-73
2024/02/16 20:08:53;;;;;;;;;;;;;;;;;;5012355;28;7568;-71
2024/02/16 20:11:18;;;;;;;;;;;;;;;;;;5013453;28;7549;-72
2024/02/16 20:13:43;;;;;;;;;;;;;;;;;;5016440;28;7526;-72
2024/02/16 20:16:22;;;;;;;;;;;;;;;;;;;;;
2024/02/16 20:18:46;;;;;;;;;;;;;;;;;;4993194;28;7977;-70
2024/02/16 20:21:14;;;;;;;;;;;;;;;;;;4988771;28;7581;-71
2024/02/16 20:23:39;;;;;;;;;;;;;;;;;;4995074;28;7597;-73
2024/02/16 20:26:04;;;;;;;;;;;;;;;;;;4995149;28;7984;-73
2024/02/16 20:28:33;;;;;;;;;;;;;;;;;;4995100;28;7549;-72
2024/02/16 20:31:04;;;;;;;;;;;;;;;;;;4990565;28;7526;-73
2024/02/16 20:33:29;;;;;;;;;;;;;;;;;;4994980;28;7538;-72
2024/02/16 20:35:54;;;;;;;;;;;;;;;;;;4994594;28;7668;-72
2024/02/16 20:38:19;;;;;;;;;;;;;;;;;;4992561;28;7578;-72
2024/02/16 20:40:44;;;;;;;;;;;;;;;;;;4989656;28;7518;-71
2024/02/16 20:43:10;;;;;;;;;;;;;;;;;;4994677;28;7553;-72
2024/02/16 20:45:36;;;;;;;;;56.00;45.00;;;;;;;;4989711;28;14684;-75
2024/02/16 20:48:05;;;;;;;;;54.00;43.60;;;;;;;;4989043;28;13666;-72
2024/02/16 20:50:30;;;;;;;;;58.25;49.00;;;;;;;;4985616;28;13748;-70
2024/02/16 20:52:58;;;;;;;;;53.50;45.25;;;;;;;;4987670;28;13651;-69
2024/02/16 20:55:24;;;;;;;;;52.00;44.00;;;;;;;;4988835;28;13737;-69
2024/02/16 20:57:50;;;;;;;;;53.00;43.40;;;;;;;;4988136;28;13788;-71
2024/02/16 21:00:15;;;;;;;;;56.67;45.33;;;;;;;;4983018;28;13679;-69
2024/02/16 21:02:49;;;;;;;;;55.00;45.00;;;;;;;;4986766;28;13659;-69
2024/02/16 21:05:14;;;;;;;;;53.75;45.00;;;;;;;;4988305;28;13620;-71
2024/02/16 21:07:43;;;;;;;;;53.00;42.33;;;;;;;;4987957;28;13682;-69
2024/02/16 21:10:08;;;;;;;;;53.25;43.00;;;;;;;;4988060;28;13614;-70
2024/02/16 21:12:33;;;;;;;;;45.00;39.25;;;;;;;;4988574;28;13653;-71
2024/02/16 21:14:59;;;;;;;;;52.00;40.00;;;;;;;;4988664;28;13662;-75
2024/02/16 21:17:33;;;;;;;;;55.33;44.00;;;;;;;;4988227;28;14495;-72
2024/02/16 21:19:58;;;;;;;;;52.00;43.00;;;;;;;;4987312;28;13753;-69
2024/02/16 21:22:26;;;;;;;;;54.00;43.00;;;;;;;;4988204;28;13825;-71
2024/02/16 21:24:52;;;;;;;;;48.50;40.50;;;;;;;;4986679;28;13677;-70
2024/02/16 21:27:17;;;;;;;;;46.75;38.00;;;;;;;;4986335;28;13728;-71
2024/02/16 21:29:43;;;;;;;;;54.50;42.75;;;;;;;;4986673;28;14465;-71
2024/02/16 21:32:08;;;;;;;;;53.00;42.00;;;;;;;;4987972;28;13690;-72
2024/02/16 21:34:34;;;;;;;;;52.00;42.75;;;;;;;;4987453;28;13665;-73
2024/02/16 21:36:59;;;;;;;;;51.75;42.25;;;;;;;;4987491;28;13652;-72
2024/02/16 21:39:27;;;;;;;;;54.75;44.00;;;;;;;;4987744;28;13662;-70
2024/02/16 21:41:52;;;;;;;;;47.25;39.00;;;;;;;;4984754;28;13704;-71
2024/02/16 21:44:18;;;;;;;;;51.33;40.67;;;;;;;;4986860;28;13825;-73
2024/02/16 21:46:43;;;;;;;;;52.00;44.25;;;;;;;;4993666;28;13782;-73
2024/02/16 21:49:08;;;;;;;;;47.00;41.00;;;;;;;;4987934;28;13680;-73
2024/02/16 21:51:52;;;;;;;;;43.67;39.33;;;;;;;;4987679;28;14238;-72
2024/02/16 21:54:18;;;;;;;;;52.75;42.00;;;;;;;;4985317;28;13669;-71
2024/02/16 21:56:43;;;;;;;;;49.25;42.75;;;;;;;;4987487;28;13634;-69
2024/02/16 21:59:09;;;;;;;;;47.00;39.00;;;;;;;;4987532;28;13869;-69
2024/02/16 22:01:34;;;;;;;;;48.25;41.75;;;;;;;;4987890;28;13677;-69
2024/02/16 22:04:02;;;;;;;;;48.00;41.00;;;;;;;;4987907;28;13619;-69
2024/02/16 22:06:29;;;;;;;;;48.25;41.00;;;;;;;;4987043;28;13736;-68
2024/02/16 22:08:54;;;;;;;;;44.75;38.00;;;;;;;;4987236;28;13692;-69
2024/02/16 22:11:20;;;;;;;;;49.00;41.75;;;;;;;;4987038;28;13685;-70
2024/02/16 22:13:46;;;;;;;;;44.75;38.00;;;;;;;;4984785;28;13682;-69
2024/02/16 22:18:59;;;;;;;;;45.00;37.80;;;;;;;;5024890;28;13651;-69
2024/02/16 22:21:24;;;;;;;;;43.25;38.00;;;;;;;;5037557;28;13625;-69
2024/02/16 22:23:56;;;;;;;;;44.00;37.25;;;;;;;;5047095;28;14310;-69
2024/02/16 22:26:21;;;;;;;;;51.00;40.00;;;;;;;;5047190;28;13536;-70
2024/02/16 22:28:47;;;;;;;;;45.33;39.00;;;;;;;;5047220;28;13656;-70
2024/02/16 22:31:12;;;;;;;;;37.75;36.25;;;;;;;;5041281;28;13477;-69
2024/02/16 22:33:37;;;;;;;;;46.00;40.00;;;;;;;;5025405;28;13715;-70
2024/02/16 22:36:03;;;;;;;;;47.67;38.33;;;;;;;;5027121;28;13677;-67
2024/02/16 22:38:28;;;;;;;;;44.67;39.67;;;;;;;;5026434;28;13595;-68
2024/02/16 22:40:54;;;;;;;;;41.25;36.25;;;;;;;;5026559;28;13761;-67
2024/02/16 22:43:19;;;;;;;;;48.80;38.20;;;;;;;;5026278;28;14328;-67
2024/02/16 22:45:45;;;;;;;;;44.67;35.00;;;;;;;;5026153;28;13621;-67
2024/02/16 22:48:13;;;;;;;;;43.00;37.50;;;;;;;;5022401;28;13732;-69
2024/02/16 22:50:39;;;;;;;;;39.00;37.50;;;;;;;;5021128;28;13740;-67
2024/02/16 22:53:04;;;;;;;;;42.25;37.50;;;;;;;;5025711;28;13722;-68
2024/02/16 22:55:29;;;;;;;;;39.75;36.25;;;;;;;;5026188;28;13577;-68
2024/02/16 22:57:54;;;;;;;;;38.00;34.67;;;;;;;;5026044;28;13654;-68
2024/02/16 23:00:26;;;;;;;;;46.00;39.00;;;;;;;;5026118;28;13675;-68
2024/02/16 23:02:52;;;;;;;;;39.25;36.75;;;;;;;;5026585;28;13597;-68
2024/02/16 23:05:21;;;;;;;;;39.50;37.50;;;;;;;;5026302;28;14597;-69
2024/02/16 23:07:46;;;;;;;;;38.00;36.50;;;;;;;;5025733;28;13640;-68
2024/02/16 23:10:13;;;;;;;;;42.50;35.50;;;;;;;;5025476;28;13615;-68
2024/02/16 23:12:47;;;;;;;;;37.00;34.25;;;;;;;;5025349;28;14473;-69
2024/02/16 23:15:16;;;;;;;;;42.20;37.00;;;;;;;;5025314;28;14419;-73
2024/02/16 23:17:42;;;;;;;;;37.60;34.80;;;;;;;;5026236;28;13644;-74
2024/02/16 23:20:09;;;;;;;;;34.00;30.40;;;;;;;;5026934;28;14436;-69
2024/02/16 23:22:34;;;;;;;;;37.75;35.00;;;;;;;;5059656;28;13557;-68
2024/02/16 23:25:00;;;;;;;;;36.67;34.00;;;;;;;;5044094;28;13614;-69
2024/02/16 23:27:25;;;;;;;;;34.00;34.00;;;;;;;;5044165;28;13553;-69
2024/02/16 23:29:50;;;;;;;;;42.00;36.33;;;;;;;;5044264;28;13597;-69
2024/02/16 23:32:16;;;;;;;;;39.75;33.75;;;;;;;;5044374;28;13652;-69
2024/02/16 23:34:43;;;;;;;;;39.75;36.00;;;;;;;;5044194;28;13591;-69
2024/02/16 23:37:08;;;;;;;;;45.50;38.75;;;;;;;;5044945;28;13597;-69
2024/02/16 23:39:33;;;;;;;;;45.00;37.00;;;;;;;;5046608;28;13656;-69
2024/02/16 23:42:01;;;;;;;;;35.25;34.75;;;;;;;;5046222;28;14350;-69
2024/02/16 23:44:26;;;;;;;;;46.00;39.00;;;;;;;;5046269;28;13517;-68
2024/02/16 23:46:52;;;;;;;;;35.50;34.00;;;;;;;;5046224;28;13573;-69
2024/02/16 23:49:18;;;;;;;;;38.75;36.00;;;;;;;;5046948;28;13558;-69
